Time;durP1;ratioP1;P1;durP2;ratioP2;P2;SDS_P1;SDS_P2;PMS_P1;PMS_P2;Temp;Humidity;BMP_temperature;BMP_pressure;BME280_temperature;BME280_humidity;BME280_pressure;Samples;Min_cycle;Max_cycle;Signal;HPM_P1;HPM_P2
2021/07/05 00:01:18;;;;;;;19.77;12.95;;;16.90;99.90;;;;;;5051768;28;20073;-84
2021/07/05 00:04:05;;;;;;;18.65;12.90;;;16.80;99.90;;;;;;5037971;28;20045;-83
2021/07/05 00:06:52;;;;;;;20.83;11.68;;;16.80;99.90;;;;;;5039480;28;20045;-84
2021/07/05 00:09:41;;;;;;;21.15;14.43;;;16.70;99.90;;;;;;5052347;28;20581;-82
2021/07/05 00:12:28;;;;;;;23.08;13.82;;;16.70;99.90;;;;;;5037435;28;20051;-84
2021/07/05 00:15:19;;;;;;;16.92;12.80;;;16.70;99.90;;;;;;5036423;28;20128;-84
2021/07/05 00:18:08;;;;;;;21.85;13.52;;;16.60;99.90;;;;;;5037079;28;20049;-83
2021/07/05 00:20:56;;;;;;;19.90;13.17;;;16.60;99.90;;;;;;5051621;28;20498;-85
2021/07/05 00:23:43;;;;;;;21.85;13.00;;;16.60;99.90;;;;;;5051888;28;20341;-84
2021/07/05 00:26:31;;;;;;;21.10;13.05;;;16.60;99.90;;;;;;5038970;28;20581;-84
2021/07/05 00:29:19;;;;;;;20.70;13.85;;;16.50;99.90;;;;;;5036959;28;20049;-83
2021/07/05 00:32:06;;;;;;;17.25;11.75;;;16.50;99.90;;;;;;5051255;28;20045;-83
2021/07/05 00:34:53;;;;;;;18.15;13.30;;;16.50;99.90;;;;;;5037694;28;20038;-83
2021/07/05 00:37:40;;;;;;;21.27;14.13;;;16.50;99.90;;;;;;5038524;28;20506;-82
2021/07/05 00:40:29;;;;;;;17.77;13.02;;;16.40;99.90;;;;;;5038508;28;20053;-83
2021/07/05 00:43:17;;;;;;;15.90;11.70;;;16.30;99.90;;;;;;5038486;28;20532;-81
2021/07/05 00:46:04;;;;;;;20.13;13.27;;;16.30;99.90;;;;;;5037334;28;20041;-85
2021/07/05 00:48:52;;;;;;;19.92;12.77;;;16.30;99.90;;;;;;5037323;28;20053;-83
2021/07/05 00:51:39;;;;;;;19.27;12.85;;;16.30;99.90;;;;;;5050859;28;20136;-84
2021/07/05 00:54:26;;;;;;;19.25;12.85;;;16.40;99.90;;;;;;5038568;28;20644;-85
2021/07/05 00:57:20;;;;;;;16.63;10.48;;;16.40;99.90;;;;;;5037354;28;20182;-83
2021/07/05 01:00:11;;;;;;;17.67;11.77;;;16.40;99.90;;;;;;5036706;28;20124;-83
2021/07/05 01:02:59;;;;;;;17.02;11.23;;;16.30;99.90;;;;;;5036302;28;20055;-84
2021/07/05 01:05:46;;;;;;;19.40;10.52;;;16.30;99.90;;;;;;5037579;28;20049;-84
2021/07/05 01:08:34;;;;;;;16.58;11.00;;;16.40;99.90;;;;;;5037473;28;20082;-80
2021/07/05 01:11:21;;;;;;;15.68;11.18;;;16.40;99.90;;;;;;5044651;28;20431;-86
2021/07/05 01:14:09;;;;;;;18.48;10.93;;;16.40;99.90;;;;;;5037316;28;20045;-84
2021/07/05 01:16:57;;;;;;;19.50;11.02;;;16.30;99.90;;;;;;5037687;28;20040;-83
2021/07/05 01:19:49;;;;;;;17.45;10.95;;;16.20;99.90;;;;;;5037177;28;20127;-84
2021/07/05 01:22:38;;;;;;;15.85;10.07;;;16.30;99.90;;;;;;5037205;28;20044;-84
2021/07/05 01:25:27;;;;;;;14.15;10.32;;;17.70;99.90;;;;;;5040532;28;20041;-86
2021/07/05 01:28:15;;;;;;;19.25;10.57;;;16.20;99.90;;;;;;5040588;28;20437;-84
2021/07/05 01:31:02;;;;;;;18.17;10.20;;;16.20;99.90;;;;;;5040306;28;20569;-84
2021/07/05 01:33:51;;;;;;;17.42;10.63;;;16.20;99.90;;;;;;5036965;28;20052;-84
2021/07/05 01:36:38;;;;;;;15.13;9.35;;;16.20;99.90;;;;;;5050143;28;20528;-85
2021/07/05 01:39:27;;;;;;;18.08;10.13;;;16.20;99.90;;;;;;5036899;28;20399;-83
2021/07/05 01:42:14;;;;;;;16.77;10.57;;;16.10;99.90;;;;;;5051906;28;20107;-83
2021/07/05 01:45:03;;;;;;;17.55;9.55;;;16.10;99.90;;;;;;5039186;28;20049;-86
2021/07/05 01:47:51;;;;;;;16.15;10.05;;;16.00;99.90;;;;;;5035965;28;20045;-84
2021/07/05 01:50:38;;;;;;;16.48;9.45;;;16.00;99.90;;;;;;5049157;28;20570;-84
2021/07/05 01:53:25;;;;;;;17.67;10.18;;;15.90;99.90;;;;;;5035931;28;20057;-84
2021/07/05 01:56:14;;;;;;;15.25;9.70;;;16.60;99.90;;;;;;5035702;28;20049;-84
2021/07/05 01:59:01;;;;;;;15.10;9.40;;;15.90;99.90;;;;;;5036583;28;20053;-84
2021/07/05 02:01:48;;;;;;;11.88;8.32;;;15.90;99.90;;;;;;5035860;28;20327;-84
2021/07/05 02:04:36;;;;;;;15.80;8.98;;;15.80;99.90;;;;;;5037850;28;20055;-84
2021/07/05 02:07:23;;;;;;;13.80;8.15;;;15.80;99.90;;;;;;5040490;28;20128;-84
2021/07/05 02:10:12;;;;;;;11.75;7.75;;;15.80;99.90;;;;;;5040538;28;20053;-86
2021/07/05 02:13:07;;;;;;;11.52;8.35;;;15.70;99.90;;;;;;5053387;28;20132;-82
2021/07/05 02:15:57;;;;;;;11.40;7.47;;;15.70;99.90;;;;;;5040422;28;20037;-84
2021/07/05 02:18:44;;;;;;;9.57;7.40;;;15.70;99.90;;;;;;5040787;28;20052;-84
2021/07/05 02:21:32;;;;;;;9.85;7.13;;;15.60;99.90;;;;;;5054667;28;20055;-83
2021/07/05 02:24:19;;;;;;;10.65;7.43;;;15.60;99.90;;;;;;5040186;28;20041;-84
2021/07/05 02:27:06;;;;;;;15.13;7.43;;;15.60;99.90;;;;;;5040144;28;20079;-83
2021/07/05 02:29:54;;;;;;;12.85;7.60;;;15.60;99.90;;;;;;5039807;28;20715;-84
2021/07/05 02:32:42;;;;;;;13.18;7.50;;;15.50;99.90;;;;;;5040397;28;20425;-84
2021/07/05 02:35:31;;;;;;;10.15;6.95;;;15.50;99.90;;;;;;5040033;28;20510;-84
2021/07/05 02:38:19;;;;;;;9.38;6.75;;;15.50;99.90;;;;;;5040325;28;20053;-88
2021/07/05 02:41:06;;;;;;;12.80;7.20;;;15.50;99.90;;;;;;5039159;28;20045;-84
2021/07/05 02:43:53;;;;;;;10.32;6.47;;;16.00;99.90;;;;;;5038219;28;20051;-84
2021/07/05 02:46:42;;;;;;;11.15;6.47;;;15.40;99.90;;;;;;5053971;28;20080;-87
2021/07/05 02:49:29;;;;;;;12.43;7.28;;;17.00;99.90;;;;;;5039658;28;20442;-84
2021/07/05 02:52:16;;;;;;;11.95;6.72;;;15.30;99.90;;;;;;5038665;28;20044;-84
2021/07/05 02:55:05;;;;;;;11.52;6.35;;;15.30;99.90;;;;;;5038530;28;20048;-84
2021/07/05 02:57:52;;;;;;;12.48;6.55;;;15.30;99.90;;;;;;5053121;28;20418;-84
2021/07/05 03:00:42;;;;;;;8.52;5.72;;;15.20;99.90;;;;;;5038127;28;20098;-82
2021/07/05 03:03:31;;;;;;;10.98;6.40;;;15.10;99.90;;;;;;5054173;28;20516;-83
2021/07/05 03:06:18;;;;;;;9.48;5.90;;;15.10;99.90;;;;;;5039479;28;20419;-84
2021/07/05 03:09:05;;;;;;;10.02;6.13;;;15.10;99.90;;;;;;5038357;28;20127;-84
2021/07/05 03:11:52;;;;;;;11.57;6.20;;;15.00;99.90;;;;;;5053461;28;20131;-82
2021/07/05 03:14:39;;;;;;;9.30;5.43;;;17.40;99.90;;;;;;5037589;28;20094;-84
2021/07/05 03:17:26;;;;;;;10.52;5.80;;;14.90;99.90;;;;;;5039206;28;20048;-85
2021/07/05 03:20:17;;;;;;;14.55;6.30;;;14.90;99.90;;;;;;5053222;28;20068;-84
2021/07/05 03:23:06;;;;;;;9.60;5.97;;;14.90;99.90;;;;;;5038688;28;20174;-85
2021/07/05 03:25:53;;;;;;;10.45;5.97;;;14.80;99.90;;;;;;5054008;28;20045;-82
2021/07/05 03:28:40;;;;;;;9.57;6.10;;;14.80;99.90;;;;;;5052634;28;20052;-85
2021/07/05 03:31:27;;;;;;;11.23;5.88;;;14.90;99.90;;;;;;5038926;28;20053;-83
2021/07/05 03:34:15;;;;;;;11.10;5.68;;;14.90;99.90;;;;;;5032982;28;20046;-82
2021/07/05 03:37:03;;;;;;;9.48;5.40;;;14.90;99.90;;;;;;5019100;28;20050;-86
2021/07/05 03:39:51;;;;;;;12.23;4.78;;;14.90;99.90;;;;;;5019533;28;20434;-83
2021/07/05 03:42:38;;;;;;;7.68;4.38;;;14.80;99.90;;;;;;5032499;28;20054;-84
2021/07/05 03:45:28;;;;;;;7.68;4.10;;;14.80;99.90;;;;;;5019896;28;20038;-84
2021/07/05 03:48:15;;;;;;;5.80;4.27;;;14.80;99.90;;;;;;5019836;28;20120;-83
2021/07/05 03:51:02;;;;;;;7.65;3.53;;;14.80;99.90;;;;;;5018661;28;20502;-84
2021/07/05 03:53:51;;;;;;;6.53;4.13;;;14.80;99.90;;;;;;5017766;28;20124;-83
2021/07/05 03:56:38;;;;;;;7.63;3.85;;;14.90;99.90;;;;;;5018966;28;20060;-84
2021/07/05 03:59:25;;;;;;;5.78;3.45;;;14.80;99.90;;;;;;5032897;28;20085;-81
2021/07/05 04:02:12;;;;;;;8.57;4.13;;;14.80;99.90;;;;;;5018483;28;20503;-82
2021/07/05 04:04:59;;;;;;;8.43;4.30;;;14.70;99.90;;;;;;5017556;28;20203;-85
2021/07/05 04:07:46;;;;;;;10.80;5.22;;;14.70;99.90;;;;;;5018789;28;20057;-83
2021/07/05 04:10:36;;;;;;;10.68;4.70;;;14.70;99.90;;;;;;5018215;28;20124;-82
2021/07/05 04:13:26;;;;;;;9.85;4.82;;;14.70;99.90;;;;;;5036395;28;20053;-84
2021/07/05 04:16:13;;;;;;;7.47;5.18;;;14.70;99.90;;;;;;5038349;28;20063;-86
2021/07/05 04:19:00;;;;;;;9.13;5.05;;;14.70;99.90;;;;;;5037661;28;20044;-84
2021/07/05 04:21:47;;;;;;;9.98;5.07;;;14.70;99.90;;;;;;5037830;28;20191;-84
2021/07/05 04:24:34;;;;;;;9.98;5.28;;;14.70;99.90;;;;;;5035888;28;20047;-83
2021/07/05 04:27:22;;;;;;;10.48;5.63;;;14.70;99.90;;;;;;5036985;28;20049;-82
2021/07/05 04:30:11;;;;;;;10.30;5.90;;;14.70;99.90;;;;;;5051457;28;20053;-84
2021/07/05 04:32:59;;;;;;;9.00;5.25;;;14.80;99.90;;;;;;5036908;28;20055;-85
2021/07/05 04:35:46;;;;;;;7.82;5.63;;;14.80;99.90;;;;;;5051792;28;20063;-81
2021/07/05 04:38:33;;;;;;;8.95;5.15;;;14.80;99.90;;;;;;5038046;28;20051;-83
2021/07/05 04:41:20;;;;;;;12.95;5.43;;;14.90;99.90;;;;;;5038584;28;20071;-82
2021/07/05 04:44:12;;;;;;;6.18;4.18;;;14.90;99.90;;;;;;5038613;28;20126;-84
2021/07/05 04:46:59;;;;;;;10.88;4.60;;;14.90;99.90;;;;;;5036900;28;20128;-84
2021/07/05 04:49:46;;;;;;;10.38;4.50;;;14.90;99.90;;;;;;5038516;28;20041;-82
2021/07/05 04:52:33;;;;;;;6.40;3.97;;;14.90;99.90;;;;;;5038001;28;20215;-81
2021/07/05 04:55:22;;;;;;;6.13;3.60;;;14.80;99.90;;;;;;5037907;28;20461;-84
2021/07/05 04:58:09;;;;;;;7.57;4.30;;;14.80;99.90;;;;;;5038071;28;20418;-84
2021/07/05 05:00:57;;;;;;;8.55;4.13;;;14.70;99.90;;;;;;5036677;28;20463;-84
2021/07/05 05:03:45;;;;;;;6.82;3.78;;;14.80;99.90;;;;;;5037192;28;20053;-84
2021/07/05 05:06:32;;;;;;;9.40;3.70;;;14.80;99.90;;;;;;5037651;28;20120;-83
2021/07/05 05:09:23;;;;;;;7.75;3.70;;;14.90;99.90;;;;;;5037534;28;20138;-84
2021/07/05 05:12:10;;;;;;;4.30;2.97;;;15.00;99.90;;;;;;5038234;28;20041;-84
2021/07/05 05:14:58;;;;;;;7.25;3.60;;;15.00;99.90;;;;;;5035412;28;20167;-85
2021/07/05 05:17:48;;;;;;;7.80;2.95;;;15.10;99.90;;;;;;5051325;28;20056;-83
2021/07/05 05:20:35;;;;;;;6.15;2.97;;;15.20;99.90;;;;;;5037443;28;20049;-84
2021/07/05 05:23:22;;;;;;;5.30;2.75;;;15.20;99.90;;;;;;5037057;28;20045;-85
2021/07/05 05:26:09;;;;;;;6.40;2.50;;;15.30;99.90;;;;;;5037319;28;20041;-84
2021/07/05 05:28:57;;;;;;;5.43;2.60;;;15.30;99.90;;;;;;5050165;28;20076;-82
2021/07/05 05:31:44;;;;;;;7.53;2.33;;;15.40;99.90;;;;;;5036133;28;20425;-84
2021/07/05 05:34:33;;;;;;;5.72;2.15;;;15.40;99.90;;;;;;5051266;28;20425;-84
2021/07/05 05:37:20;;;;;;;3.20;2.05;;;15.50;99.90;;;;;;5038964;28;20121;-84
2021/07/05 05:40:08;;;;;;;3.25;1.90;;;15.50;99.90;;;;;;5041721;28;20070;-85
2021/07/05 05:42:55;;;;;;;5.32;1.75;;;15.60;99.90;;;;;;5041238;28;20096;-83
2021/07/05 05:45:43;;;;;;;5.45;2.00;;;15.60;99.90;;;;;;5042295;28;20124;-86
2021/07/05 05:48:30;;;;;;;3.75;1.88;;;15.60;99.90;;;;;;5041460;28;20049;-84
2021/07/05 05:51:19;;;;;;;4.75;1.63;;;15.70;99.90;;;;;;5055678;28;20727;-82
2021/07/05 05:54:08;;;;;;;3.72;1.88;;;15.70;99.90;;;;;;5040841;28;20183;-82
2021/07/05 05:56:55;;;;;;;3.70;1.70;;;15.80;99.90;;;;;;5041065;28;20087;-85
2021/07/05 05:59:42;;;;;;;6.93;1.85;;;15.90;99.90;;;;;;5040638;28;20045;-84
2021/07/05 06:02:29;;;;;;;3.53;1.80;;;17.10;99.90;;;;;;5054727;28;20041;-86
2021/07/05 06:05:17;;;;;;;4.22;1.63;;;16.10;99.90;;;;;;5040696;28;20175;-84
2021/07/05 06:08:06;;;;;;;5.30;1.75;;;16.00;99.90;;;;;;5039857;28;20052;-84
2021/07/05 06:10:53;;;;;;;4.05;1.83;;;16.10;99.90;;;;;;5041827;28;20056;-85
2021/07/05 06:13:40;;;;;;;3.40;1.85;;;16.20;99.90;;;;;;5035184;28;20047;-84
2021/07/05 06:16:28;;;;;;;4.10;1.58;;;16.30;99.90;;;;;;5020015;28;20134;-84
2021/07/05 06:19:15;;;;;;;3.45;1.80;;;16.40;99.90;;;;;;5019369;28;20045;-84
2021/07/05 06:22:12;;;;;;;4.63;1.80;;;16.40;99.90;;;;;;5036083;28;20104;-84
2021/07/05 06:25:00;;;;;;;3.53;1.60;;;16.60;99.90;;;;;;5021100;28;20046;-84
2021/07/05 06:27:48;;;;;;;3.30;1.52;;;16.80;99.90;;;;;;5020912;28;20050;-85
2021/07/05 06:30:35;;;;;;;3.42;1.73;;;17.00;99.90;;;;;;5020509;28;20060;-84
2021/07/05 06:33:22;;;;;;;4.65;1.65;;;18.20;99.90;;;;;;5035498;28;20525;-83
2021/07/05 06:36:11;;;;;;;2.40;1.30;;;17.30;99.90;;;;;;5038386;28;20049;-86
2021/07/05 06:38:59;;;;;;;4.30;1.30;;;17.50;99.90;;;;;;5038384;28;20049;-84
2021/07/05 06:41:47;;;;;;;3.90;1.30;;;17.80;99.90;;;;;;5039931;28;20124;-84
2021/07/05 06:44:34;;;;;;;2.75;1.20;;;18.10;99.90;;;;;;5038210;28;20418;-84
2021/07/05 06:47:21;;;;;;;2.35;1.20;;;18.40;99.90;;;;;;5039924;28;20422;-83
2021/07/05 06:50:09;;;;;;;4.60;1.30;;;18.70;99.90;;;;;;5039143;28;20175;-84
2021/07/05 06:52:57;;;;;;;3.10;1.25;;;18.80;99.90;;;;;;5038853;28;20540;-84
2021/07/05 06:55:44;;;;;;;3.13;1.27;;;19.00;99.90;;;;;;5039781;28;20053;-84
2021/07/05 06:58:32;;;;;;;7.50;1.33;;;19.10;99.90;;;;;;5039223;28;20048;-86
2021/07/05 07:01:19;;;;;;;2.30;1.25;;;19.00;99.90;;;;;;5039750;28;20060;-84
2021/07/05 07:04:07;;;;;;;2.85;1.20;;;19.10;99.90;;;;;;5053248;28;20052;-84
2021/07/05 07:06:54;;;;;;;3.10;1.13;;;19.30;99.90;;;;;;5052979;28;20053;-86
2021/07/05 07:09:41;;;;;;;2.65;0.82;;;21.30;99.90;;;;;;5053140;28;20059;-85
2021/07/05 07:12:28;;;;;;;3.92;1.10;;;19.60;99.90;;;;;;5052897;28;20053;-86
2021/07/05 07:15:20;;;;;;;3.33;1.00;;;19.60;99.90;;;;;;5052045;28;20043;-83
2021/07/05 07:18:32;;;;;;;3.10;1.27;;;19.70;99.90;;;;;;5038857;28;20037;-84
2021/07/05 07:21:17;;;;;;;5.20;1.10;;;19.70;99.90;;;;;;5054241;28;20045;-84
2021/07/05 07:24:04;;;;;;;1.98;1.05;;;19.70;99.90;;;;;;5039030;28;20053;-86
2021/07/05 07:26:51;;;;;;;2.30;1.13;;;19.70;99.90;;;;;;5053876;28;20052;-87
2021/07/05 07:29:38;;;;;;;2.72;1.20;;;19.80;99.90;;;;;;5037839;28;20596;-82
2021/07/05 07:32:27;;;;;;;2.10;0.82;;;21.20;99.90;;;;;;5039108;28;20416;-85
2021/07/05 07:35:16;;;;;;;6.32;1.50;;;19.90;99.90;;;;;;5037339;28;20041;-83
2021/07/05 07:38:04;;;;;;;3.83;1.00;;;20.00;99.90;;;;;;5037908;28;20048;-84
2021/07/05 07:40:51;;;;;;;5.05;1.30;;;20.00;99.90;;;;;;5038869;28;20056;-84
2021/07/05 07:43:38;;;;;;;3.97;1.20;;;20.00;99.90;;;;;;5037622;28;20514;-83
2021/07/05 07:46:26;;;;;;;2.78;1.27;;;20.00;99.90;;;;;;5038210;28;20041;-84
2021/07/05 07:49:14;;;;;;;2.85;1.08;;;19.90;99.90;;;;;;5038759;28;20422;-84
2021/07/05 07:52:02;;;;;;;2.53;1.10;;;19.90;99.90;;;;;;5051625;28;20056;-84
2021/07/05 07:54:49;;;;;;;2.20;1.23;;;19.80;99.90;;;;;;5037429;28;20513;-84
2021/07/05 07:57:37;;;;;;;4.53;1.58;;;19.70;99.90;;;;;;5038839;28;20071;-85
2021/07/05 08:00:29;;;;;;;5.43;2.03;;;19.40;99.90;;;;;;5051925;28;20052;-85
2021/07/05 08:03:16;;;;;;;4.65;1.98;;;19.20;99.90;;;;;;5051597;28;20124;-81
2021/07/05 08:06:05;;;;;;;7.32;2.08;;;19.00;99.90;;;;;;5038273;28;20124;-86
2021/07/05 08:08:53;;;;;;;3.42;1.52;;;18.90;99.90;;;;;;5038157;28;20362;-84
2021/07/05 08:11:40;;;;;;;4.03;1.58;;;18.80;99.90;;;;;;5038149;28;20041;-84
2021/07/05 08:14:28;;;;;;;3.50;1.35;;;18.80;99.90;;;;;;5038761;28;20053;-83
2021/07/05 08:17:15;;;;;;;3.78;1.10;;;18.80;99.90;;;;;;5038281;28;20056;-85
2021/07/05 08:20:04;;;;;;;2.75;1.25;;;20.20;99.90;;;;;;5037910;28;20049;-84
2021/07/05 08:22:55;;;;;;;2.65;1.17;;;18.90;99.90;;;;;;5038283;28;20055;-88
2021/07/05 08:25:44;;;;;;;2.95;1.00;;;19.00;99.90;;;;;;5037065;28;20052;-85
2021/07/05 08:28:31;;;;;;;3.85;1.50;;;19.00;99.90;;;;;;5038076;28;20044;-84
2021/07/05 08:31:18;;;;;;;2.58;1.13;;;19.10;99.90;;;;;;5038012;28;20045;-87
2021/07/05 08:34:06;;;;;;;3.92;1.45;;;19.20;99.90;;;;;;5017078;28;20128;-84
2021/07/05 08:36:53;;;;;;;3.47;1.20;;;19.30;99.90;;;;;;5032120;28;20094;-84
2021/07/05 08:39:41;;;;;;;4.55;1.45;;;19.40;99.90;;;;;;5017992;28;20048;-83
2021/07/05 08:42:28;;;;;;;4.53;1.60;;;19.40;99.90;;;;;;5017857;28;20053;-85
2021/07/05 08:45:16;;;;;;;3.78;1.60;;;19.30;99.90;;;;;;5018310;28;20092;-85
2021/07/05 08:48:04;;;;;;;2.63;1.40;;;19.30;99.90;;;;;;5016771;28;20049;-86
2021/07/05 08:50:51;;;;;;;3.40;1.77;;;19.20;99.90;;;;;;5030748;28;20049;-84
2021/07/05 08:53:40;;;;;;;3.55;1.50;;;19.30;99.90;;;;;;5018162;28;20049;-86
2021/07/05 08:56:28;;;;;;;4.55;1.75;;;19.30;99.90;;;;;;5032593;28;20041;-84
2021/07/05 08:59:16;;;;;;;3.47;1.30;;;19.30;99.90;;;;;;5017892;28;20055;-85
2021/07/05 09:02:03;;;;;;;4.68;1.13;;;19.30;99.90;;;;;;5017997;28;20566;-84
2021/07/05 09:04:51;;;;;;;2.17;1.17;;;19.40;99.90;;;;;;5017399;28;20172;-84
2021/07/05 09:07:55;;;;;;;2.53;1.27;;;20.90;99.90;;;;;;5017725;28;20045;-84
2021/07/05 09:10:45;;;;;;;3.13;1.20;;;19.40;99.90;;;;;;5018113;28;20128;-84
2021/07/05 09:13:45;;;;;;;2.83;1.30;;;19.60;99.90;;;;;;5036757;28;20072;-84
2021/07/05 09:16:33;;;;;;;;;;;19.50;99.90;;;;;;5037806;28;20037;-84
2021/07/05 09:19:21;;;;;;;2.00;1.20;;;20.40;99.90;;;;;;5036895;28;19971;-83
2021/07/05 09:22:09;;;;;;;3.40;1.20;;;19.50;99.90;;;;;;5050479;28;20059;-86
2021/07/05 09:24:57;;;;;;;2.65;0.98;;;19.50;99.90;;;;;;5049352;28;20131;-84
2021/07/05 09:27:44;;;;;;;2.28;1.23;;;19.40;99.90;;;;;;5034926;28;20041;-87
2021/07/05 09:30:40;;;;;;;7.60;1.40;;;19.50;99.90;;;;;;5035429;28;20055;-84
2021/07/05 09:33:29;;;;;;;2.75;1.30;;;19.30;99.90;;;;;;5052195;28;20131;-84
2021/07/05 09:36:21;;;;;;;3.05;1.20;;;19.30;99.90;;;;;;5037287;28;20514;-85
2021/07/05 09:39:14;;;;;;;2.30;1.20;;;19.50;99.90;;;;;;5037272;28;20143;-85
2021/07/05 09:42:07;;;;;;;5.45;1.40;;;19.60;99.90;;;;;;5038060;28;20049;-84
2021/07/05 09:44:56;;;;;;;2.58;1.40;;;19.60;99.90;;;;;;5038634;28;20041;-86
2021/07/05 09:47:44;;;;;;;1.60;1.02;;;19.80;99.90;;;;;;5052552;28;20069;-85
2021/07/05 09:50:33;;;;;;;2.45;1.30;;;20.00;99.90;;;;;;5037415;28;20056;-85
2021/07/05 09:53:26;;;;;;;3.85;1.02;;;20.20;99.90;;;;;;5037100;28;20044;-86
2021/07/05 09:56:18;;;;;;;2.75;1.25;;;20.40;99.90;;;;;;5036972;28;20045;-85
2021/07/05 09:59:17;;;;;;;2.58;1.17;;;20.60;99.90;;;;;;5037842;28;20049;-84
2021/07/05 10:02:08;;;;;;;;;;;20.80;99.90;;;;;;5037421;28;20090;-84
2021/07/05 10:05:13;;;;;;;4.18;1.00;;;21.10;99.90;;;;;;5036005;28;19928;-84
2021/07/05 10:08:03;;;;;;;3.30;1.00;;;21.40;99.90;;;;;;5037353;28;20037;-85
2021/07/05 10:11:04;;;;;;;1.92;1.10;;;21.30;99.90;;;;;;5037362;28;20179;-85
2021/07/05 10:13:51;;;;;;;3.15;1.38;;;21.30;99.90;;;;;;5030836;28;20045;-84
2021/07/05 10:16:38;;;;;;;4.25;1.10;;;21.10;99.90;;;;;;5017556;28;20042;-85
2021/07/05 10:19:25;;;;;;;1.70;1.10;;;20.70;99.90;;;;;;5017144;28;20176;-87
2021/07/05 10:22:15;;;;;;;2.45;0.90;;;20.40;99.90;;;;;;5018351;28;20041;-85
2021/07/05 10:25:03;;;;;;;2.08;0.98;;;20.40;99.90;;;;;;5018067;28;20056;-84
2021/07/05 10:27:51;;;;;;;2.03;1.08;;;20.70;99.90;;;;;;5019724;28;20094;-85
2021/07/05 10:30:39;;;;;;;1.33;0.90;;;21.00;99.90;;;;;;5038804;28;20044;-86
2021/07/05 10:33:26;;;;;;;1.88;1.10;;;21.20;99.90;;;;;;5039317;28;20183;-87
2021/07/05 10:36:14;;;;;;;1.15;0.80;;;21.40;99.90;;;;;;5043889;28;20072;-89
2021/07/05 10:39:05;;;;;;;1.10;0.73;;;21.50;99.90;;;;;;5052761;28;20039;-81
2021/07/05 10:41:52;;;;;;;3.40;1.00;;;21.30;99.90;;;;;;5058689;28;20047;-84
2021/07/05 10:44:41;;;;;;;0.93;0.60;;;21.40;99.90;;;;;;5041510;28;20040;-86
2021/07/05 10:47:52;;;;;;;0.55;0.38;;;21.50;99.90;;;;;;5039785;28;20418;-83
2021/07/05 10:50:55;;;;;;;0.93;0.45;;;21.70;99.90;;;;;;5037964;28;20126;-84
2021/07/05 10:53:55;;;;;;;0.85;0.47;;;21.70;99.90;;;;;;5039715;28;20055;-84
2021/07/05 10:56:53;;;;;;;0.77;0.47;;;21.80;99.90;;;;;;5039684;28;20044;-86
2021/07/05 10:59:42;;;;;;;0.98;0.50;;;22.00;99.90;;;;;;5038166;28;20045;-84
2021/07/05 11:02:41;;;;;;;1.00;0.43;;;22.20;99.90;;;;;;5039051;28;20134;-86
2021/07/05 11:05:49;;;;;;;1.30;0.60;;;22.40;99.90;;;;;;5041047;28;20051;-85
2021/07/05 11:08:42;;;;;;;0.88;0.40;;;22.50;99.90;;;;;;5039461;28;20041;-83
2021/07/05 11:11:31;;;;;;;2.40;0.63;;;22.60;99.90;;;;;;5039903;28;20072;-85
2021/07/05 11:14:23;;;;;;;1.08;0.30;;;22.60;99.90;;;;;;5040144;28;20045;-85
2021/07/05 11:17:25;;;;;;;3.40;0.60;;;22.60;99.90;;;;;;5039706;28;20624;-85
2021/07/05 11:20:14;;;;;;;2.13;0.55;;;22.50;99.90;;;;;;5039473;28;20048;-87
2021/07/05 11:23:01;;;;;;;0.50;0.32;;;22.60;99.90;;;;;;5039412;28;20471;-85
2021/07/05 11:25:48;;;;;;;1.00;0.40;;;22.70;99.90;;;;;;5038763;28;20052;-85
2021/07/05 11:28:36;;;;;;;1.20;0.70;;;22.00;99.90;;;;;;5054220;28;20441;-84
2021/07/05 11:31:24;;;;;;;0.80;0.60;;;22.30;99.90;;;;;;5040221;28;20521;-84
2021/07/05 11:34:25;;;;;;;1.88;0.80;;;21.20;99.90;;;;;;5034223;28;20116;-85
2021/07/05 11:37:34;;;;;;;3.30;0.88;;;21.10;99.90;;;;;;5018736;28;20120;-83
2021/07/05 11:40:39;;;;;;;;;;;21.10;99.90;;;;;;5019075;28;20179;-84
2021/07/05 11:43:59;;;;;;;1.23;0.50;;;21.10;99.90;;;;;;5033901;28;19928;-85
2021/07/05 11:46:52;;;;;;;2.33;0.57;;;21.30;99.90;;;;;;4979006;28;20191;-86
2021/07/05 11:49:40;;;;;;;1.15;0.70;;;21.50;99.90;;;;;;5019670;28;20045;-85
2021/07/05 11:52:27;;;;;;;1.17;0.52;;;21.30;99.90;;;;;;5019590;28;20050;-87
2021/07/05 11:55:15;;;;;;;3.13;0.70;;;21.10;99.90;;;;;;5018611;28;20050;-84
2021/07/05 11:58:05;;;;;;;4.38;0.82;;;21.10;99.90;;;;;;5019529;28;20079;-84
2021/07/05 12:00:52;;;;;;;0.93;0.60;;;21.10;99.90;;;;;;5018303;28;20047;-85
2021/07/05 12:03:50;;;;;;;1.15;0.70;;;21.20;99.90;;;;;;5019273;28;20052;-86
2021/07/05 12:06:45;;;;;;;1.17;0.60;;;21.20;99.90;;;;;;5018350;28;20060;-86
2021/07/05 12:09:34;;;;;;;1.35;0.60;;;21.20;99.90;;;;;;5018155;28;20426;-84
2021/07/05 12:12:22;;;;;;;3.85;0.80;;;21.20;99.90;;;;;;5027416;28;20045;-85
2021/07/05 12:15:10;;;;;;;2.65;0.70;;;22.10;99.90;;;;;;5038038;28;20549;-86
2021/07/05 12:17:58;;;;;;;0.77;0.50;;;21.30;99.90;;;;;;5039068;28;20506;-84
2021/07/05 12:20:55;;;;;;;2.38;0.73;;;21.10;99.90;;;;;;5052102;28;20045;-85
2021/07/05 12:23:43;;;;;;;1.88;0.63;;;21.20;99.90;;;;;;5038592;28;20049;-84
2021/07/05 12:26:40;;;;;;;1.15;0.50;;;21.30;99.90;;;;;;5038678;28;20051;-86
2021/07/05 12:29:32;;;;;;;2.80;0.65;;;21.50;99.90;;;;;;5036465;28;20418;-84
2021/07/05 12:32:24;;;;;;;0.73;0.55;;;21.50;99.90;;;;;;5037784;28;20127;-83
2021/07/05 12:35:12;;;;;;;1.95;0.60;;;21.70;99.90;;;;;;5037748;28;20510;-84
2021/07/05 12:38:01;;;;;;;1.50;0.60;;;21.90;99.90;;;;;;5037142;28;20131;-86
2021/07/05 12:40:48;;;;;;;1.40;0.70;;;22.00;99.90;;;;;;5037201;28;20053;-84
2021/07/05 12:43:35;;;;;;;1.38;0.70;;;23.10;99.90;;;;;;5038842;28;20055;-87
2021/07/05 12:46:25;;;;;;;1.85;0.70;;;22.50;99.90;;;;;;5038567;28;20070;-83
2021/07/05 12:49:12;;;;;;;1.55;0.60;;;22.70;99.90;;;;;;5052477;28;20045;-86
2021/07/05 12:52:00;;;;;;;1.40;0.85;;;22.50;99.90;;;;;;5038935;28;20052;-87
2021/07/05 12:54:48;;;;;;;2.92;0.60;;;22.70;99.90;;;;;;5038071;28;20537;-86
2021/07/05 12:57:47;;;;;;;1.52;0.80;;;22.90;99.70;;;;;;5052629;28;20124;-84
2021/07/05 13:00:46;;;;;;;1.33;0.65;;;23.20;99.90;;;;;;5038952;28;20119;-85
2021/07/05 13:03:34;;;;;;;1.33;0.70;;;23.30;99.90;;;;;;5053402;28;20041;-82
2021/07/05 13:06:21;;;;;;;1.20;0.65;;;23.80;99.90;;;;;;5053040;28;20461;-85
2021/07/05 13:09:09;;;;;;;2.67;0.90;;;23.90;99.90;;;;;;5038058;28;20045;-85
2021/07/05 13:12:00;;;;;;;1.77;0.85;;;24.20;99.50;;;;;;5037371;28;20152;-84
2021/07/05 13:14:47;;;;;;;3.20;0.98;;;24.00;98.80;;;;;;5037811;28;20049;-86
2021/07/05 13:17:34;;;;;;;3.45;0.80;;;24.00;99.90;;;;;;5038169;28;20047;-85
2021/07/05 13:20:23;;;;;;;4.38;1.10;;;23.90;98.30;;;;;;5037009;28;20522;-86
2021/07/05 13:23:11;;;;;;;3.40;0.90;;;23.70;97.60;;;;;;5038254;28;20045;-84
2021/07/05 13:26:00;;;;;;;4.65;1.13;;;23.90;97.30;;;;;;5052606;28;20418;-86
2021/07/05 13:28:51;;;;;;;3.77;1.20;;;24.00;97.60;;;;;;5036895;28;20047;-84
2021/07/05 13:31:39;;;;;;;2.33;1.20;;;24.00;97.10;;;;;;5038242;28;20103;-87
2021/07/05 13:34:37;;;;;;;3.40;1.10;;;23.90;97.20;;;;;;5037602;28;20056;-87
2021/07/05 13:37:35;;;;;;;4.37;1.20;;;23.90;96.40;;;;;;5052805;28;20037;-86
2021/07/05 13:40:23;;;;;;;3.97;1.40;;;23.30;96.60;;;;;;5037978;28;20656;-84
2021/07/05 13:43:15;;;;;;;4.35;1.45;;;23.70;98.50;;;;;;5037054;28;20049;-87
2021/07/05 13:46:04;;;;;;;2.22;1.00;;;24.20;98.30;;;;;;5051173;28;20102;-84
2021/07/05 13:48:51;;;;;;;3.07;1.30;;;24.40;98.90;;;;;;5036211;28;20413;-85
2021/07/05 13:51:38;;;;;;;3.45;1.10;;;24.30;98.00;;;;;;5037742;28;20536;-84
2021/07/05 13:54:29;;;;;;;3.38;0.98;;;24.70;98.60;;;;;;5037166;28;20099;-85
2021/07/05 13:57:19;;;;;;;2.70;1.20;;;24.70;96.60;;;;;;5036773;28;20045;-85
2021/07/05 14:00:07;;;;;;;3.55;1.15;;;25.00;96.40;;;;;;5053990;28;20179;-85
2021/07/05 14:02:56;;;;;;;4.70;1.23;;;24.90;95.50;;;;;;5041058;28;20149;-86
2021/07/05 14:05:44;;;;;;;4.45;1.30;;;24.80;96.30;;;;;;5040316;28;20128;-85
2021/07/05 14:08:32;;;;;;;5.05;1.40;;;24.80;96.30;;;;;;5040170;28;20060;-84
2021/07/05 14:11:21;;;;;;;4.33;1.30;;;24.30;96.40;;;;;;5041414;28;20051;-83
2021/07/05 14:14:11;;;;;;;7.32;1.42;;;23.70;96.60;;;;;;5039812;28;20045;-84
2021/07/05 14:16:58;;;;;;;2.90;1.20;;;23.80;97.80;;;;;;5040527;28;20049;-84
2021/07/05 14:19:47;;;;;;;3.00;1.17;;;23.60;99.10;;;;;;5054821;28;20537;-84
2021/07/05 14:22:35;;;;;;;5.20;1.25;;;25.10;98.90;;;;;;5040318;28;20049;-84
2021/07/05 14:25:22;;;;;;;4.10;1.50;;;23.80;99.90;;;;;;5039877;28;20102;-83
2021/07/05 14:28:10;;;;;;;4.45;1.20;;;24.00;98.60;;;;;;5038215;28;20127;-84
2021/07/05 14:30:59;;;;;;;6.05;1.40;;;24.30;98.10;;;;;;5040819;28;20127;-85
2021/07/05 14:33:46;;;;;;;4.15;1.10;;;24.80;96.00;;;;;;5054216;28;20045;-84
2021/07/05 14:36:34;;;;;;;3.53;1.30;;;25.00;97.10;;;;;;5041543;28;20041;-84